KPTB/PTB METAR and TAF weather

Enter ICAO airport designator
Station Type Date Time Source
KPTB METAR 2020/07/06 23:15 UTC NOAA

KPTB 062315Z AUTO 20003KT 10SM CLR 30/20 A3001 RMK AO2 T03000198


Station Type Date Time Source
KPTB Decoded METAR 2020/07/06 23:15 UTC NOAA

Petersburg, Dinwiddie County Airport, VA, United States (KPTB) 37-11N 077-31W
Jul 06, 2020 - 07:15 PM EDT / 2020.07.06 2315 UTC
Wind: from the SSW (200 degrees) at 3 MPH (3 KT):0
Visibility: 10 mile(s):0
Sky conditions: clear
Temperature: 86.0 F (30.0 C)
Dew Point: 67.6 F (19.8 C)
Relative Humidity: 54%
Pressure (altimeter): 30.01 in. Hg (1016 hPa)
ob: KPTB 062315Z AUTO 20003KT 10SM CLR 30/20 A3001 RMK AO2 T03000198
cycle: 23

Station Type Date Time Source
KPTB TAF UTC NOAA

Error!

Example: see airport list